Time,TemperatureF,DewpointF,PressureIn,WindDirection,WindDirectionDegrees,WindSpeedMPH,WindSpeedGustMPH,Humidity,HourlyPrecipIn,Conditions,Clouds,dailyrainin,SolarRadiationWatts/m^2,SoftwareType,DateUTC
2013-07-09 00:00:00,54.0,50.0,-100.00,WSW,247,0.0,0.0,85,-99.99,,,0.00,0.000000,,2013-07-09 06:00:00,
2013-07-09 00:53:00,54.0,50.0,-100.00,WSW,247,0.0,0.0,85,-99.99,,,0.00,0.000000,,2013-07-09 06:53:00,
2013-07-09 01:00:00,52.0,-99.9,-100.00,North,-999,-999.0,-999.0,-999,-99.99,,,0.00,,,2013-07-09 07:00:00,
2013-07-09 02:00:00,52.0,49.0,-100.00,SE,136,0.0,0.0,90,-99.99,,,0.00,0.000000,,2013-07-09 08:00:00,
2013-07-09 03:00:00,51.0,48.0,-100.00,SE,146,0.0,0.0,92,-99.99,,,0.00,0.000000,,2013-07-09 09:00:00,
2013-07-09 03:53:00,51.0,48.0,-100.00,SE,146,0.0,0.0,92,-99.99,,,0.00,0.000000,,2013-07-09 09:53:00,
2013-07-09 04:00:00,50.0,48.0,-100.00,SSE,156,0.0,1.0,94,-99.99,,,0.00,0.000000,,2013-07-09 10:00:00,
2013-07-09 05:00:00,49.0,48.0,-100.00,SSE,162,0.0,1.0,95,-99.99,,,0.00,0.000000,,2013-07-09 11:00:00,
2013-07-09 05:53:00,49.0,48.0,-100.00,SSE,162,0.0,1.0,95,-99.99,,,0.00,0.000000,,2013-07-09 11:53:00,
2013-07-09 06:00:00,48.0,48.0,-100.00,SSE,157,0.0,1.0,97,-99.99,,,0.00,0.300000,,2013-07-09 12:00:00,
2013-07-09 06:53:00,48.0,48.0,-100.00,SSE,157,0.0,1.0,97,-99.99,,,0.00,0.300000,,2013-07-09 12:53:00,
2013-07-09 07:00:00,50.0,49.0,-100.00,South,171,0.0,1.0,97,-99.99,,,0.00,18.600000,,2013-07-09 13:00:00,
2013-07-09 07:53:00,50.0,49.0,-100.00,South,171,0.0,1.0,97,-99.99,,,0.00,18.600000,,2013-07-09 13:53:00,
2013-07-09 08:00:00,55.0,53.0,-100.00,SE,145,0.0,1.0,94,-99.99,,,0.00,65.599998,,2013-07-09 14:00:00,
2013-07-09 08:53:00,55.0,53.0,-100.00,SE,145,0.0,1.0,94,-99.99,,,0.00,65.599998,,2013-07-09 14:53:00,
2013-07-09 09:00:00,63.0,-99.9,-100.00,North,-999,-999.0,-999.0,-999,-99.99,,,-99.99,,,2013-07-09 15:00:00,
2013-07-09 11:00:00,74.0,41.0,-100.00,NE,49,1.0,4.0,30,-99.99,,,0.00,568.099976,,2013-07-09 17:00:00,
2013-07-09 12:00:00,76.0,43.0,-100.00,NE,40,1.0,5.0,31,-99.99,,,0.00,580.900024,,2013-07-09 18:00:00,
2013-07-09 13:00:00,77.0,42.0,-100.00,NNE,23,2.0,7.0,28,-99.99,,,0.00,970.099976,,2013-07-09 19:00:00,
2013-07-09 14:00:00,75.0,35.0,-100.00,NE,47,2.0,6.0,24,-99.99,,,0.00,651.400024,,2013-07-09 20:00:00,
2013-07-09 14:52:00,75.0,35.0,-100.00,NE,47,2.0,6.0,24,-99.99,,,0.00,651.400024,,2013-07-09 20:52:00,
2013-07-09 15:00:00,74.0,39.0,-100.00,NNE,27,1.0,4.0,28,-99.99,,,0.00,159.699997,,2013-07-09 21:00:00,
2013-07-09 15:52:00,74.0,39.0,-100.00,NNE,27,1.0,4.0,28,-99.99,,,0.00,159.699997,,2013-07-09 21:52:00,
2013-07-09 16:00:00,71.0,-99.9,-100.00,North,-999,-999.0,-999.0,-999,-99.99,,,0.00,,,2013-07-09 22:00:00,
2013-07-09 16:54:00,71.0,-99.9,-100.00,North,-999,-999.0,-999.0,-999,-99.99,,,0.00,,,2013-07-09 22:54:00,
2013-07-09 17:00:00,70.0,41.0,-100.00,SSW,209,1.0,5.0,35,-99.99,,,0.00,65.900002,,2013-07-09 23:00:00,
2013-07-09 17:53:00,70.0,41.0,-100.00,SSW,209,1.0,5.0,35,-99.99,,,0.00,65.900002,,2013-07-09 23:53:00,
2013-07-09 18:00:00,69.0,43.0,-100.00,WSW,256,1.0,4.0,38,-99.99,,,0.00,95.900002,,2013-07-10 00:00:00,
2013-07-09 19:00:00,69.0,41.0,-100.00,WSW,239,1.0,4.0,36,-99.99,,,0.00,132.199997,,2013-07-10 01:00:00,
2013-07-09 19:53:00,69.0,41.0,-100.00,WSW,239,1.0,4.0,36,-99.99,,,0.00,132.199997,,2013-07-10 01:53:00,
2013-07-09 20:00:00,67.0,41.0,-100.00,SE,145,1.0,6.0,39,-99.99,,,0.00,55.000000,,2013-07-10 02:00:00,
2013-07-09 21:00:00,63.0,43.0,-100.00,East,79,1.0,7.0,48,-99.99,,,0.00,4.300000,,2013-07-10 03:00:00,
2013-07-09 21:52:00,63.0,43.0,-100.00,East,79,1.0,7.0,48,-99.99,,,0.00,4.300000,,2013-07-10 03:52:00,
2013-07-09 22:00:00,60.0,43.0,-100.00,ESE,110,1.0,4.0,53,-99.99,,,-99.99,0.000000,,2013-07-10 04:00:00,
2013-07-09 23:00:00,59.0,43.0,-100.00,ESE,109,1.0,4.0,57,-99.99,,,0.00,0.000000,,2013-07-10 05:00:00,
2013-07-09 23:42:00,59.0,43.0,-100.00,ESE,109,1.0,4.0,57,-99.99,,,0.00,0.000000,,2013-07-10 05:42:00,
2013-07-09 23:53:00,59.0,43.0,-100.00,ESE,109,1.0,4.0,57,-99.99,,,0.00,0.000000,,2013-07-10 05:53:00,